Flight Track Log - Related Links

Times and Time Zones

All times are in EST time to prevent confusion due to time zone crossing. See the UAL1614 flight status page for this flight to view local times or setup timezone preferences in your user account.

Time Position Orientation Groundspeed Altitude Reporting Facility
EST Latitude Longitude Course Direction KTS MPH feet Rate Location/Type
Sun 09:51:29 AM 49.1667 -123.1667 113° Southeast 150 173 500  Level Vancouver Center
Sun 09:52:29 AM 49.1500 -123.1167 117° Southeast 180 207 3,500 3,174 Climbing Vancouver Center
Sun 09:53:30 AM 49.1333 -123.0167 104° East 260 299 6,900 3,273 Climbing Vancouver Center
Sun 09:54:00 AM 48.9792 -122.7479 121° Southeast  Level FlightAware Approximate
Sun 09:54:30 AM 49.1000 -122.9000 114° Southeast 280 322 10,100  Level Vancouver Center
Sun 09:55:00 AM 48.9326 -122.5629 107° East  Level FlightAware Approximate
Sun 09:55:30 AM 49.0500 -122.7833 123° Southeast 330 380 12,600  Level Vancouver Center
Sun 09:56:00 AM 48.8859 -122.3770 111° Southeast  Level FlightAware Approximate
Sun 09:56:30 AM 49.0167 -122.6333 109° East 410 472 15,600  Level Vancouver Center
Sun 09:57:00 AM 48.8397 -122.1806 113° Southeast  Level FlightAware Approximate
Sun 09:58:46 AM 48.9342 -122.2508 108° East 431 496 22,400  Level Seattle Center
Sun 09:59:46 AM 48.8719 -122.0847 120° Southeast 448 516 24,900 2,479 Climbing Seattle Center
Sun 10:00:47 AM 48.8081 -121.9142 120° Southeast 461 531 27,400 2,365 Climbing Seattle Center
Sun 10:01:30 AM 48.7333 -121.7833 131° Southeast 470 541 29,000 793 Climbing Vancouver Center
Sun 10:02:48 AM 48.6761 -121.5681 112° Southeast 474 545 29,000  Level Seattle Center
Sun 10:03:48 AM 48.6097 -121.3953 120° Southeast 476 548 29,000  Level Seattle Center
Sun 10:04:48 AM 48.5425 -121.2211 120° Southeast 478 550 29,000  Level Seattle Center
Sun 10:05:49 AM 48.4756 -121.0481 120° Southeast 478 550 29,000  Level Seattle Center
Sun 10:06:49 AM 48.4086 -120.8736 120° Southeast 479 551 29,000  Level Seattle Center
Sun 10:07:50 AM 48.3372 -120.6964 121° Southeast 482 555 29,000  Level Seattle Center
Sun 10:08:50 AM 48.2689 -120.5231 121° Southeast 482 555 29,000  Level Seattle Center
Sun 10:09:51 AM 48.2014 -120.3492 120° Southeast 484 557 29,000 -50 Level Seattle Center
Sun 10:10:51 AM 48.1306 -120.1742 121° Southeast 491 565 28,900  Descending Seattle Center
Sun 10:11:51 AM 48.0600 -120.0003 121° Southeast 491 565 29,000 38 Climbing Seattle Center
Sun 10:13:30 AM 47.9333 -119.6667 119° Southeast 520 598 29,000  Level Vancouver Center
Sun 10:14:53 AM 47.8369 -119.4519 124° Southeast 518 596 29,000 -42 Level Seattle Center
Sun 10:15:53 AM 47.7606 -119.2675 122° Southeast 523 602 28,900  Descending Seattle Center
Sun 10:16:53 AM 47.6847 -119.0853 122° Southeast 522 601 29,000  Climbing Seattle Center
Sun 10:17:54 AM 47.6089 -118.9019 121° Southeast 523 602 28,900  Descending Seattle Center
Sun 10:18:54 AM 47.5317 -118.7206 122° Southeast 524 603 29,000 50 Climbing Seattle Center
Sun 10:19:55 AM 47.4550 -118.5389 122° Southeast 524 603 29,000  Level Seattle Center
Sun 10:20:55 AM 47.3767 -118.3547 122° Southeast 530 610 29,000  Level Seattle Center
Sun 10:22:27 AM 47.2506 -118.0625 122° Southeast 532 612 29,000  Level Salt Lake Center
Sun 10:23:27 AM 47.1722 -117.8808 122° Southeast 532 612 29,000  Level Salt Lake Center
Sun 10:24:28 AM 47.0931 -117.7008 123° Southeast 530 610 29,000 -49 Level Salt Lake Center
Sun 10:25:29 AM 47.0144 -117.5225 123° Southeast 527 606 28,900  Descending Salt Lake Center
Sun 10:26:30 AM 46.9344 -117.3433 123° Southeast 529 609 29,000 40 Climbing Salt Lake Center
Sun 10:27:58 AM 46.8078 -117.0592 123° Southeast 526 605 29,000  Level Seattle Center
Sun 10:29:59 AM 46.6486 -116.7056 123° Southeast 524 603 29,000  Level Seattle Center
Sun 10:31:00 AM 46.5683 -116.5303 124° Southeast 525 604 29,000  Level Seattle Center
Sun 10:32:00 AM 46.4881 -116.3564 124° Southeast 523 602 29,000  Level Seattle Center
Sun 10:33:01 AM 46.4075 -116.1800 123° Southeast 525 604 29,000 -50 Level Seattle Center
Sun 10:34:01 AM 46.3253 -116.0061 124° Southeast 525 604 28,900  Descending Seattle Center
Sun 10:35:39 AM 46.1944 -115.7272 124° Southeast 526 605 29,000 38 Climbing Salt Lake Center
Sun 10:36:40 AM 46.1133 -115.5525 124° Southeast 527 606 29,000 -42 Level Salt Lake Center
Sun 10:38:03 AM 45.9975 -115.3125 125° Southeast 525 604 28,900  Descending Seattle Center
Sun 10:38:42 AM 45.9442 -115.2008 124° Southeast 525 604 29,000 60 Climbing Salt Lake Center
Sun 10:39:43 AM 45.8611 -115.0269 124° Southeast 527 606 29,000  Level Salt Lake Center
Sun 10:40:44 AM 45.7778 -114.8564 125° Southeast 524 603 29,000  Level Salt Lake Center
Sun 10:41:45 AM 45.6772 -114.6489 125° Southeast 527 606 29,000 590 Level Salt Lake Center
Sun 10:42:46 AM 45.5917 -114.4761 125° Southeast 531 611 30,200 1,574 Climbing Salt Lake Center
Sun 10:43:47 AM 45.5064 -114.3014 125° Southeast 535 616 32,200 1,377 Climbing Salt Lake Center
Sun 10:44:48 AM 45.4197 -114.1281 125° Southeast 536 617 33,000 393 Climbing Salt Lake Center
Sun 10:45:49 AM 45.3331 -113.9550 125° Southeast 536 617 33,000  Level Salt Lake Center
Sun 10:46:50 AM 45.2406 -113.7725 126° Southeast 537 618 33,000  Level Salt Lake Center
Sun 10:48:52 AM 45.0714 -113.4414 126° Southeast 542 624 33,000  Level Salt Lake Center
Sun 10:49:53 AM 44.9728 -113.2489 126° Southeast 543 625 33,000  Level Salt Lake Center
Sun 10:50:55 AM 44.8864 -113.0828 126° Southeast 549 632 33,000  Level Salt Lake Center
Sun 10:51:56 AM 44.7878 -112.8900 126° Southeast 545 627 33,000  Level Salt Lake Center
Sun 10:52:57 AM 44.7017 -112.7269 127° Southeast 544 626 33,000  Level Salt Lake Center
Sun 10:53:58 AM 44.6169 -112.5644 126° Southeast 540 621 33,000 -492 Level Salt Lake Center
Sun 10:57:01 AM 44.3367 -112.0389 127° Southeast 527 606 31,000 -390 Descending Salt Lake Center
Sun 10:59:06 AM 44.1578 -111.7042 127° Southeast 524 603 31,000  Level Salt Lake Center
Sun 11:00:07 AM 44.0733 -111.5503 127° Southeast 527 606 31,000  Level Salt Lake Center
Sun 11:01:08 AM 43.9875 -111.3950 128° Southeast 531 611 31,000  Level Salt Lake Center
Sun 11:02:00 AM 43.9561 -111.3250 127° Southeast  Level FlightAware Approximate
Sun 11:02:10 AM 43.8864 -111.2100 127° Southeast 539 620 31,000  Level Salt Lake Center
Sun 11:03:11 AM 43.7992 -111.0531 128° Southeast 539 620 31,000  Level Salt Lake Center
Sun 11:05:13 AM 43.6081 -110.7097 127° Southeast 544 626 31,000 -33 Level Salt Lake Center
Sun 11:06:15 AM 43.5094 -110.5350 128° Southeast 541 623 30,900  Descending Salt Lake Center
Sun 11:07:16 AM 43.4133 -110.3628 127° Southeast 544 626 31,000 33 Climbing Salt Lake Center
Sun 11:09:18 AM 43.2233 -110.0342 128° Southeast 540 621 31,000  Level Salt Lake Center
Sun 11:11:21 AM 43.0400 -109.7172 128° Southeast 547 629 31,000  Level Salt Lake Center
Sun 11:12:22 AM 42.9342 -109.5350 128° Southeast 545 627 31,000  Level Salt Lake Center
Sun 11:14:25 AM 42.7508 -109.2244 129° Southeast 550 633 31,000  Level Salt Lake Center
Sun 11:15:26 AM 42.6456 -109.0453 129° Southeast 545 627 31,000  Level Salt Lake Center
Sun 11:16:28 AM 42.5550 -108.8928 129° Southeast 542 624 31,000  Level Salt Lake Center
Sun 11:17:29 AM 42.4642 -108.7417 129° Southeast 540 621 31,000  Level Salt Lake Center
Sun 11:18:30 AM 42.3589 -108.5661 129° Southeast 538 619 31,000  Level Salt Lake Center
Sun 11:19:31 AM 42.2681 -108.4144 129° Southeast 540 621 31,000  Level Salt Lake Center
Sun 11:20:33 AM 42.1606 -108.2372 129° Southeast 544 626 31,000  Level Salt Lake Center
Sun 11:22:35 AM 41.9742 -107.9356 130° Southeast 550 633 31,000  Level Salt Lake Center
Sun 11:23:47 AM 41.8528 -107.7381 129° Southeast 537 618 31,000  Level Denver Center
Sun 11:24:49 AM 41.7611 -107.5925 130° Southeast 534 615 31,000  Level Denver Center
Sun 11:25:50 AM 41.6742 -107.4267 125° Southeast 489 563 31,000  Level Denver Center
Sun 11:26:52 AM 41.6000 -107.2850 125° Southeast 486 559 31,000  Level Denver Center
Sun 11:27:54 AM 41.5250 -107.1422 125° Southeast 489 563 31,000  Level Denver Center
Sun 11:29:45 AM 41.3717 -106.8511 125° Southeast 505 581 31,000  Level Salt Lake Center
Sun 11:30:46 AM 41.2914 -106.6997 125° Southeast 519 597 31,000  Level Salt Lake Center
Sun 11:32:01 AM 41.1839 -106.4964 125° Southeast 524 603 31,000  Level Denver Center
Sun 11:33:02 AM 41.0881 -106.3242 126° Southeast 521 600 31,000  Level Denver Center
Sun 11:35:06 AM 40.9156 -106.0056 126° Southeast 511 588 31,000 -323 Level Denver Center
Sun 11:36:08 AM 40.8317 -105.8514 126° Southeast 516 594 30,000 -1,561 Descending Denver Center
Sun 11:37:09 AM 40.7511 -105.7047 126° Southeast 501 577 27,800 -2,195 Descending Denver Center
Sun 11:38:11 AM 40.6728 -105.5642 126° Southeast 483 556 25,500 -2,081 Descending Denver Center
Sun 11:39:13 AM 40.5964 -105.4281 126° Southeast 469 540 23,500 -1,774 Descending Denver Center
Sun 11:41:17 AM 40.4278 -105.1819 132° Southeast 424 488 20,000 -1,606 Descending Denver Center
Sun 11:42:31 AM 40.3278 -105.1053 150° Southeast 389 448 18,200 -1,127 Descending Denver Center
Sun 11:44:34 AM 40.1314 -104.9483 149° Southeast 364 419 16,300 -1,297 Descending Denver Center
Sun 11:45:36 AM 40.0439 -104.8783 149° Southeast 369 425 14,200 -2,032 Descending Denver Center
Sun 11:46:38 AM 39.9467 -104.8092 151° Southeast 372 428 12,100 -1,065 Descending Denver Center
Sun 11:47:40 AM 39.8544 -104.8081 179° South 340 391 12,000 -146 Descending Denver Center
Sun 11:48:41 AM 39.7694 -104.8094 181° South 284 327 11,800 -683 Descending Denver Center
Sun 11:49:43 AM 39.6967 -104.8117 181° South 266 306 10,600 -1,065 Descending Denver Center
Sun 11:50:45 AM 39.6208 -104.8142 181° South 257 296 9,600 -774 Descending Denver Center
Sun 11:51:47 AM 39.5900 -104.7422 119° Southeast 253 291 9,000 -290 Descending Denver Center
Sun 11:52:49 AM 39.6208 -104.6769 58° Northeast 209 241 9,000 -244 Level Denver Center
Sun 11:53:50 AM 39.6733 -104.6622 12° North 194 223 8,500 -781 Descending Denver Center
Sun 11:55:38 AM 39.7667 -104.6667 358° North 183 211 6,800 -929 Descending Denver TRACON
Sun 11:56:38 AM 39.8000 -104.6667 360° North 143 165 5,900 -604 Descending Denver TRACON
Sun 11:57:57 AM 39.8464 -104.6611 North 131 151 5,400 -380 Descending Denver Center

Login

Don't have an account? Register now (free) for customized features, flight alerts, and more!